sensor_id;sensor_type;location;lat;lon;timestamp;P1;durP1;ratioP1;P2;durP2;ratioP2
43319;SDS011;28914;48.722;9.332;2023-02-28T00:01:11;3.80;;;2.50;;
43319;SDS011;28914;48.722;9.332;2023-02-28T00:06:31;2.57;;;2.37;;
43319;SDS011;28914;48.722;9.332;2023-02-28T00:11:51;2.70;;;2.27;;
43319;SDS011;28914;48.722;9.332;2023-02-28T00:17:10;3.10;;;2.33;;
43319;SDS011;28914;48.722;9.332;2023-02-28T00:22:29;3.50;;;1.97;;
43319;SDS011;28914;48.722;9.332;2023-02-28T00:27:48;2.90;;;1.80;;
43319;SDS011;28914;48.722;9.332;2023-02-28T00:33:08;3.40;;;2.10;;
43319;SDS011;28914;48.722;9.332;2023-02-28T00:38:27;2.73;;;1.90;;
43319;SDS011;28914;48.722;9.332;2023-02-28T00:43:46;3.93;;;2.30;;
43319;SDS011;28914;48.722;9.332;2023-02-28T00:49:05;2.47;;;2.27;;
43319;SDS011;28914;48.722;9.332;2023-02-28T00:54:25;2.73;;;1.80;;
43319;SDS011;28914;48.722;9.332;2023-02-28T00:59:44;1.97;;;1.77;;
43319;SDS011;28914;48.722;9.332;2023-02-28T01:05:03;2.50;;;2.30;;
43319;SDS011;28914;48.722;9.332;2023-02-28T01:10:23;5.37;;;2.77;;
43319;SDS011;28914;48.722;9.332;2023-02-28T01:15:45;2.70;;;2.13;;
43319;SDS011;28914;48.722;9.332;2023-02-28T01:21:12;3.13;;;2.83;;
43319;SDS011;28914;48.722;9.332;2023-02-28T01:26:32;5.10;;;2.90;;
43319;SDS011;28914;48.722;9.332;2023-02-28T01:31:52;2.70;;;2.07;;
43319;SDS011;28914;48.722;9.332;2023-02-28T01:37:11;5.23;;;2.80;;
43319;SDS011;28914;48.722;9.332;2023-02-28T01:42:30;4.53;;;2.10;;
43319;SDS011;28914;48.722;9.332;2023-02-28T01:47:50;3.37;;;2.90;;
43319;SDS011;28914;48.722;9.332;2023-02-28T01:53:15;3.90;;;2.60;;
43319;SDS011;28914;48.722;9.332;2023-02-28T01:58:37;2.77;;;2.47;;
43319;SDS011;28914;48.722;9.332;2023-02-28T02:03:57;2.80;;;2.50;;
43319;SDS011;28914;48.722;9.332;2023-02-28T02:09:20;2.93;;;2.67;;
43319;SDS011;28914;48.722;9.332;2023-02-28T02:42:42;2.93;;;2.37;;
43319;SDS011;28914;48.722;9.332;2023-02-28T02:48:06;3.83;;;3.23;;
43319;SDS011;28914;48.722;9.332;2023-02-28T02:53:34;4.17;;;3.30;;
43319;SDS011;28914;48.722;9.332;2023-02-28T02:59:01;4.53;;;3.20;;
43319;SDS011;28914;48.722;9.332;2023-02-28T03:04:23;3.03;;;2.73;;
43319;SDS011;28914;48.722;9.332;2023-02-28T03:09:52;3.93;;;3.17;;
43319;SDS011;28914;48.722;9.332;2023-02-28T03:15:19;4.10;;;3.47;;
43319;SDS011;28914;48.722;9.332;2023-02-28T03:20:59;4.33;;;3.43;;
43319;SDS011;28914;48.722;9.332;2023-02-28T03:26:26;5.10;;;3.80;;
43319;SDS011;28914;48.722;9.332;2023-02-28T03:37:12;3.97;;;3.57;;
43319;SDS011;28914;48.722;9.332;2023-02-28T03:42:36;4.13;;;2.83;;
43319;SDS011;28914;48.722;9.332;2023-02-28T03:53:52;3.40;;;3.03;;
43319;SDS011;28914;48.722;9.332;2023-02-28T03:59:20;3.90;;;3.30;;
43319;SDS011;28914;48.722;9.332;2023-02-28T04:04:47;5.93;;;4.23;;
43319;SDS011;28914;48.722;9.332;2023-02-28T04:10:06;5.60;;;4.47;;
43319;SDS011;28914;48.722;9.332;2023-02-28T04:15:27;5.80;;;3.60;;
43319;SDS011;28914;48.722;9.332;2023-02-28T04:20:46;4.97;;;3.70;;
43319;SDS011;28914;48.722;9.332;2023-02-28T04:26:06;4.43;;;3.60;;
43319;SDS011;28914;48.722;9.332;2023-02-28T04:31:25;4.90;;;4.50;;
43319;SDS011;28914;48.722;9.332;2023-02-28T04:36:44;5.20;;;3.40;;
43319;SDS011;28914;48.722;9.332;2023-02-28T04:42:04;4.70;;;4.23;;
43319;SDS011;28914;48.722;9.332;2023-02-28T04:47:23;5.50;;;4.00;;
43319;SDS011;28914;48.722;9.332;2023-02-28T04:52:43;4.50;;;3.77;;
43319;SDS011;28914;48.722;9.332;2023-02-28T04:58:02;4.83;;;4.33;;
43319;SDS011;28914;48.722;9.332;2023-02-28T05:03:22;6.37;;;4.47;;
43319;SDS011;28914;48.722;9.332;2023-02-28T05:08:41;4.67;;;4.20;;
43319;SDS011;28914;48.722;9.332;2023-02-28T05:14:02;6.07;;;5.47;;
43319;SDS011;28914;48.722;9.332;2023-02-28T05:19:22;4.97;;;4.37;;
43319;SDS011;28914;48.722;9.332;2023-02-28T05:24:41;6.33;;;5.50;;
43319;SDS011;28914;48.722;9.332;2023-02-28T05:30:01;5.17;;;4.67;;
43319;SDS011;28914;48.722;9.332;2023-02-28T05:35:21;6.03;;;4.70;;
43319;SDS011;28914;48.722;9.332;2023-02-28T05:40:41;4.50;;;4.10;;
43319;SDS011;28914;48.722;9.332;2023-02-28T05:46:07;4.63;;;4.20;;
43319;SDS011;28914;48.722;9.332;2023-02-28T05:51:28;4.60;;;3.80;;
43319;SDS011;28914;48.722;9.332;2023-02-28T05:56:47;5.73;;;5.20;;
43319;SDS011;28914;48.722;9.332;2023-02-28T06:02:11;4.67;;;4.27;;
43319;SDS011;28914;48.722;9.332;2023-02-28T06:07:32;8.00;;;4.63;;
43319;SDS011;28914;48.722;9.332;2023-02-28T06:12:51;6.87;;;5.90;;
43319;SDS011;28914;48.722;9.332;2023-02-28T06:18:10;5.80;;;5.30;;
43319;SDS011;28914;48.722;9.332;2023-02-28T06:23:30;5.50;;;5.00;;
43319;SDS011;28914;48.722;9.332;2023-02-28T06:28:49;5.33;;;4.83;;
43319;SDS011;28914;48.722;9.332;2023-02-28T06:34:08;6.60;;;5.60;;
43319;SDS011;28914;48.722;9.332;2023-02-28T06:39:28;7.93;;;6.90;;
43319;SDS011;28914;48.722;9.332;2023-02-28T06:44:48;9.80;;;7.47;;
43319;SDS011;28914;48.722;9.332;2023-02-28T06:50:08;9.00;;;8.03;;
43319;SDS011;28914;48.722;9.332;2023-02-28T06:55:29;11.17;;;10.07;;
43319;SDS011;28914;48.722;9.332;2023-02-28T07:00:50;7.87;;;7.10;;
43319;SDS011;28914;48.722;9.332;2023-02-28T07:06:10;9.17;;;8.23;;
43319;SDS011;28914;48.722;9.332;2023-02-28T07:11:29;8.87;;;8.00;;
43319;SDS011;28914;48.722;9.332;2023-02-28T07:16:49;8.57;;;7.70;;
43319;SDS011;28914;48.722;9.332;2023-02-28T07:22:09;8.87;;;7.50;;
43319;SDS011;28914;48.722;9.332;2023-02-28T07:27:28;8.83;;;7.30;;
43319;SDS011;28914;48.722;9.332;2023-02-28T07:32:47;7.70;;;7.00;;
43319;SDS011;28914;48.722;9.332;2023-02-28T07:38:07;7.90;;;7.20;;
43319;SDS011;28914;48.722;9.332;2023-02-28T07:43:26;7.00;;;6.17;;
43319;SDS011;28914;48.722;9.332;2023-02-28T07:48:45;8.53;;;6.87;;
43319;SDS011;28914;48.722;9.332;2023-02-28T07:54:05;7.13;;;6.43;;
43319;SDS011;28914;48.722;9.332;2023-02-28T07:59:24;7.57;;;6.77;;
43319;SDS011;28914;48.722;9.332;2023-02-28T08:04:43;6.70;;;6.10;;
43319;SDS011;28914;48.722;9.332;2023-02-28T08:10:02;6.63;;;6.03;;
43319;SDS011;28914;48.722;9.332;2023-02-28T08:15:24;6.50;;;5.90;;
43319;SDS011;28914;48.722;9.332;2023-02-28T08:20:43;6.97;;;6.37;;
43319;SDS011;28914;48.722;9.332;2023-02-28T08:26:02;6.90;;;6.20;;
43319;SDS011;28914;48.722;9.332;2023-02-28T08:31:21;7.00;;;5.73;;
43319;SDS011;28914;48.722;9.332;2023-02-28T08:36:41;8.50;;;7.70;;
43319;SDS011;28914;48.722;9.332;2023-02-28T08:42:04;7.47;;;6.77;;
43319;SDS011;28914;48.722;9.332;2023-02-28T08:47:23;7.90;;;7.10;;
43319;SDS011;28914;48.722;9.332;2023-02-28T08:52:42;6.97;;;6.27;;
43319;SDS011;28914;48.722;9.332;2023-02-28T08:58:02;9.23;;;7.90;;
43319;SDS011;28914;48.722;9.332;2023-02-28T09:03:22;8.80;;;7.93;;
43319;SDS011;28914;48.722;9.332;2023-02-28T09:08:42;8.70;;;7.60;;
43319;SDS011;28914;48.722;9.332;2023-02-28T09:14:01;9.67;;;8.70;;
43319;SDS011;28914;48.722;9.332;2023-02-28T09:19:22;7.93;;;6.60;;
43319;SDS011;28914;48.722;9.332;2023-02-28T09:24:41;7.70;;;7.00;;
43319;SDS011;28914;48.722;9.332;2023-02-28T09:30:00;10.67;;;8.00;;
43319;SDS011;28914;48.722;9.332;2023-02-28T09:35:23;10.90;;;7.83;;
43319;SDS011;28914;48.722;9.332;2023-02-28T09:40:47;9.37;;;8.17;;
43319;SDS011;28914;48.722;9.332;2023-02-28T09:46:26;9.27;;;8.40;;
43319;SDS011;28914;48.722;9.332;2023-02-28T09:52:00;12.27;;;9.13;;
43319;SDS011;28914;48.722;9.332;2023-02-28T09:57:37;9.80;;;8.80;;
43319;SDS011;28914;48.722;9.332;2023-02-28T10:03:18;10.53;;;9.10;;
43319;SDS011;28914;48.722;9.332;2023-02-28T10:08:56;11.87;;;8.70;;
43319;SDS011;28914;48.722;9.332;2023-02-28T10:14:21;10.07;;;8.63;;
43319;SDS011;28914;48.722;9.332;2023-02-28T10:19:49;8.87;;;7.87;;
43319;SDS011;28914;48.722;9.332;2023-02-28T10:25:21;11.90;;;10.50;;
43319;SDS011;28914;48.722;9.332;2023-02-28T10:30:50;9.73;;;8.63;;
43319;SDS011;28914;48.722;9.332;2023-02-28T10:36:14;10.60;;;9.00;;
43319;SDS011;28914;48.722;9.332;2023-02-28T10:41:35;10.67;;;9.57;;
43319;SDS011;28914;48.722;9.332;2023-02-28T10:47:01;10.50;;;9.50;;
43319;SDS011;28914;48.722;9.332;2023-02-28T10:52:35;10.43;;;9.40;;
43319;SDS011;28914;48.722;9.332;2023-02-28T10:57:57;10.77;;;9.67;;
43319;SDS011;28914;48.722;9.332;2023-02-28T11:03:23;9.40;;;8.43;;
43319;SDS011;28914;48.722;9.332;2023-02-28T11:08:49;11.47;;;10.27;;
43319;SDS011;28914;48.722;9.332;2023-02-28T11:14:20;10.20;;;9.20;;
43319;SDS011;28914;48.722;9.332;2023-02-28T11:19:46;9.00;;;8.20;;
43319;SDS011;28914;48.722;9.332;2023-02-28T11:25:09;8.27;;;7.57;;
43319;SDS011;28914;48.722;9.332;2023-02-28T11:30:39;8.60;;;7.60;;
43319;SDS011;28914;48.722;9.332;2023-02-28T11:47:38;9.10;;;8.30;;
43319;SDS011;28914;48.722;9.332;2023-02-28T11:59:08;7.30;;;6.60;;
43319;SDS011;28914;48.722;9.332;2023-02-28T12:05:00;7.53;;;6.73;;
43319;SDS011;28914;48.722;9.332;2023-02-28T12:27:20;9.97;;;9.00;;
43319;SDS011;28914;48.722;9.332;2023-02-28T12:32:44;12.33;;;11.10;;
43319;SDS011;28914;48.722;9.332;2023-02-28T12:38:12;9.27;;;8.37;;
43319;SDS011;28914;48.722;9.332;2023-02-28T12:43:44;10.20;;;9.00;;
43319;SDS011;28914;48.722;9.332;2023-02-28T12:49:09;10.37;;;9.37;;
43319;SDS011;28914;48.722;9.332;2023-02-28T12:54:44;8.97;;;8.07;;
43319;SDS011;28914;48.722;9.332;2023-02-28T13:00:29;9.57;;;8.57;;
43319;SDS011;28914;48.722;9.332;2023-02-28T13:27:54;9.73;;;8.70;;
43319;SDS011;28914;48.722;9.332;2023-02-28T13:38:45;9.07;;;7.73;;
43319;SDS011;28914;48.722;9.332;2023-02-28T13:49:27;8.50;;;7.70;;
43319;SDS011;28914;48.722;9.332;2023-02-28T14:06:13;11.93;;;7.63;;
43319;SDS011;28914;48.722;9.332;2023-02-28T14:11:37;7.93;;;7.13;;
43319;SDS011;28914;48.722;9.332;2023-02-28T14:16:58;18.00;;;12.50;;
43319;SDS011;28914;48.722;9.332;2023-02-28T14:22:39;11.47;;;9.50;;
43319;SDS011;28914;48.722;9.332;2023-02-28T14:33:50;9.40;;;8.50;;
43319;SDS011;28914;48.722;9.332;2023-02-28T14:39:19;9.13;;;8.33;;
43319;SDS011;28914;48.722;9.332;2023-02-28T14:44:40;12.10;;;10.87;;
43319;SDS011;28914;48.722;9.332;2023-02-28T14:50:00;9.00;;;8.20;;
43319;SDS011;28914;48.722;9.332;2023-02-28T14:55:23;10.50;;;9.30;;
43319;SDS011;28914;48.722;9.332;2023-02-28T15:00:56;10.73;;;9.67;;
43319;SDS011;28914;48.722;9.332;2023-02-28T15:06:19;10.23;;;9.27;;
43319;SDS011;28914;48.722;9.332;2023-02-28T15:11:39;9.00;;;8.13;;
43319;SDS011;28914;48.722;9.332;2023-02-28T15:17:03;9.57;;;8.43;;
43319;SDS011;28914;48.722;9.332;2023-02-28T15:22:28;8.07;;;7.00;;
43319;SDS011;28914;48.722;9.332;2023-02-28T15:27:55;10.20;;;8.70;;
43319;SDS011;28914;48.722;9.332;2023-02-28T15:38:35;6.87;;;6.27;;
43319;SDS011;28914;48.722;9.332;2023-02-28T15:49:47;8.90;;;8.00;;
43319;SDS011;28914;48.722;9.332;2023-02-28T15:55:19;8.83;;;8.00;;
43319;SDS011;28914;48.722;9.332;2023-02-28T16:00:40;9.73;;;8.50;;
43319;SDS011;28914;48.722;9.332;2023-02-28T16:06:08;11.07;;;8.57;;
43319;SDS011;28914;48.722;9.332;2023-02-28T16:11:38;11.80;;;9.93;;
43319;SDS011;28914;48.722;9.332;2023-02-28T16:17:18;11.33;;;10.07;;
43319;SDS011;28914;48.722;9.332;2023-02-28T16:22:49;8.90;;;8.00;;
43319;SDS011;28914;48.722;9.332;2023-02-28T16:28:12;11.70;;;9.30;;
43319;SDS011;28914;48.722;9.332;2023-02-28T16:33:37;10.10;;;9.20;;
43319;SDS011;28914;48.722;9.332;2023-02-28T16:38:57;10.77;;;9.70;;
43319;SDS011;28914;48.722;9.332;2023-02-28T16:44:35;10.33;;;9.27;;
43319;SDS011;28914;48.722;9.332;2023-02-28T16:49:54;9.10;;;8.20;;
43319;SDS011;28914;48.722;9.332;2023-02-28T16:55:13;9.30;;;7.20;;
43319;SDS011;28914;48.722;9.332;2023-02-28T17:00:32;9.97;;;8.30;;
43319;SDS011;28914;48.722;9.332;2023-02-28T17:05:52;10.33;;;9.30;;
43319;SDS011;28914;48.722;9.332;2023-02-28T17:11:11;9.93;;;8.80;;
43319;SDS011;28914;48.722;9.332;2023-02-28T17:16:31;9.23;;;8.33;;
43319;SDS011;28914;48.722;9.332;2023-02-28T17:21:52;10.00;;;9.13;;
43319;SDS011;28914;48.722;9.332;2023-02-28T17:27:12;12.73;;;10.93;;
43319;SDS011;28914;48.722;9.332;2023-02-28T17:32:31;10.77;;;9.53;;
43319;SDS011;28914;48.722;9.332;2023-02-28T17:37:50;11.00;;;10.00;;
43319;SDS011;28914;48.722;9.332;2023-02-28T17:43:09;8.97;;;8.10;;
43319;SDS011;28914;48.722;9.332;2023-02-28T17:48:29;9.63;;;8.63;;
43319;SDS011;28914;48.722;9.332;2023-02-28T17:53:48;10.63;;;9.30;;
43319;SDS011;28914;48.722;9.332;2023-02-28T17:59:08;9.57;;;8.17;;
43319;SDS011;28914;48.722;9.332;2023-02-28T18:04:28;11.13;;;9.50;;
43319;SDS011;28914;48.722;9.332;2023-02-28T18:09:47;9.13;;;8.33;;
43319;SDS011;28914;48.722;9.332;2023-02-28T18:15:07;8.50;;;7.60;;
43319;SDS011;28914;48.722;9.332;2023-02-28T18:20:27;9.27;;;7.93;;
43319;SDS011;28914;48.722;9.332;2023-02-28T18:25:46;9.00;;;8.10;;
43319;SDS011;28914;48.722;9.332;2023-02-28T18:31:06;9.07;;;8.27;;
43319;SDS011;28914;48.722;9.332;2023-02-28T18:36:26;11.30;;;10.27;;
43319;SDS011;28914;48.722;9.332;2023-02-28T18:41:46;12.07;;;10.77;;
43319;SDS011;28914;48.722;9.332;2023-02-28T18:47:05;11.93;;;10.30;;
43319;SDS011;28914;48.722;9.332;2023-02-28T18:52:24;12.00;;;9.23;;
43319;SDS011;28914;48.722;9.332;2023-02-28T18:57:44;8.87;;;7.97;;
43319;SDS011;28914;48.722;9.332;2023-02-28T19:03:04;10.00;;;7.77;;
43319;SDS011;28914;48.722;9.332;2023-02-28T19:08:23;8.13;;;7.37;;
43319;SDS011;28914;48.722;9.332;2023-02-28T19:13:44;9.03;;;8.13;;
43319;SDS011;28914;48.722;9.332;2023-02-28T19:19:03;8.77;;;7.33;;
43319;SDS011;28914;48.722;9.332;2023-02-28T19:24:23;7.87;;;7.17;;
43319;SDS011;28914;48.722;9.332;2023-02-28T19:29:42;8.77;;;7.97;;
43319;SDS011;28914;48.722;9.332;2023-02-28T19:35:01;9.53;;;7.50;;
43319;SDS011;28914;48.722;9.332;2023-02-28T19:40:21;8.37;;;7.57;;
43319;SDS011;28914;48.722;9.332;2023-02-28T19:45:40;7.30;;;6.57;;
43319;SDS011;28914;48.722;9.332;2023-02-28T19:51:09;10.10;;;8.13;;
43319;SDS011;28914;48.722;9.332;2023-02-28T19:56:30;10.00;;;7.70;;
43319;SDS011;28914;48.722;9.332;2023-02-28T20:01:49;9.57;;;8.40;;
43319;SDS011;28914;48.722;9.332;2023-02-28T20:07:12;11.47;;;9.70;;
43319;SDS011;28914;48.722;9.332;2023-02-28T20:12:31;9.23;;;8.33;;
43319;SDS011;28914;48.722;9.332;2023-02-28T20:17:50;11.03;;;9.33;;
43319;SDS011;28914;48.722;9.332;2023-02-28T20:23:09;10.53;;;9.40;;
43319;SDS011;28914;48.722;9.332;2023-02-28T20:28:29;15.00;;;10.83;;
43319;SDS011;28914;48.722;9.332;2023-02-28T20:33:49;9.83;;;8.60;;
43319;SDS011;28914;48.722;9.332;2023-02-28T20:39:09;10.20;;;8.07;;
43319;SDS011;28914;48.722;9.332;2023-02-28T20:44:28;11.17;;;9.67;;
43319;SDS011;28914;48.722;9.332;2023-02-28T20:49:47;9.90;;;8.90;;
43319;SDS011;28914;48.722;9.332;2023-02-28T20:55:06;14.70;;;13.17;;
43319;SDS011;28914;48.722;9.332;2023-02-28T21:00:26;14.60;;;10.83;;
43319;SDS011;28914;48.722;9.332;2023-02-28T21:05:45;10.47;;;9.50;;
43319;SDS011;28914;48.722;9.332;2023-02-28T21:11:14;10.60;;;8.87;;
43319;SDS011;28914;48.722;9.332;2023-02-28T21:16:35;10.13;;;8.97;;
43319;SDS011;28914;48.722;9.332;2023-02-28T21:21:54;18.10;;;15.33;;
43319;SDS011;28914;48.722;9.332;2023-02-28T21:27:14;20.10;;;17.57;;
43319;SDS011;28914;48.722;9.332;2023-02-28T21:32:33;11.93;;;10.57;;
43319;SDS011;28914;48.722;9.332;2023-02-28T21:37:53;14.87;;;11.77;;
43319;SDS011;28914;48.722;9.332;2023-02-28T21:43:12;12.47;;;10.90;;
43319;SDS011;28914;48.722;9.332;2023-02-28T21:48:32;9.90;;;8.77;;
43319;SDS011;28914;48.722;9.332;2023-02-28T21:53:51;11.60;;;9.53;;
43319;SDS011;28914;48.722;9.332;2023-02-28T21:59:11;9.30;;;8.27;;
43319;SDS011;28914;48.722;9.332;2023-02-28T22:04:31;10.60;;;9.50;;
43319;SDS011;28914;48.722;9.332;2023-02-28T22:09:50;9.23;;;8.37;;
43319;SDS011;28914;48.722;9.332;2023-02-28T22:15:10;11.27;;;8.87;;
43319;SDS011;28914;48.722;9.332;2023-02-28T22:20:30;9.70;;;8.80;;
43319;SDS011;28914;48.722;9.332;2023-02-28T22:25:49;10.53;;;9.43;;
43319;SDS011;28914;48.722;9.332;2023-02-28T22:31:22;10.90;;;9.60;;
43319;SDS011;28914;48.722;9.332;2023-02-28T22:36:51;9.70;;;8.63;;
43319;SDS011;28914;48.722;9.332;2023-02-28T22:42:12;11.10;;;8.97;;
43319;SDS011;28914;48.722;9.332;2023-02-28T22:47:31;10.80;;;9.70;;
43319;SDS011;28914;48.722;9.332;2023-02-28T22:52:50;9.80;;;8.80;;
43319;SDS011;28914;48.722;9.332;2023-02-28T22:58:10;10.20;;;9.10;;
43319;SDS011;28914;48.722;9.332;2023-02-28T23:03:29;10.93;;;9.40;;
43319;SDS011;28914;48.722;9.332;2023-02-28T23:08:50;12.00;;;10.53;;
43319;SDS011;28914;48.722;9.332;2023-02-28T23:14:11;11.53;;;9.40;;
43319;SDS011;28914;48.722;9.332;2023-02-28T23:19:32;10.50;;;9.30;;
43319;SDS011;28914;48.722;9.332;2023-02-28T23:24:51;12.23;;;9.60;;
43319;SDS011;28914;48.722;9.332;2023-02-28T23:30:12;11.00;;;9.70;;
43319;SDS011;28914;48.722;9.332;2023-02-28T23:35:32;12.30;;;11.00;;
43319;SDS011;28914;48.722;9.332;2023-02-28T23:40:51;10.27;;;9.20;;
43319;SDS011;28914;48.722;9.332;2023-02-28T23:46:11;14.87;;;11.70;;
43319;SDS011;28914;48.722;9.332;2023-02-28T23:51:31;10.43;;;9.40;;
43319;SDS011;28914;48.722;9.332;2023-02-28T23:56:50;12.10;;;9.67;;
